createdAt,value
2019-02-26T00:01:52.993Z,16.75
2019-02-26T00:04:25.444Z,16.30
2019-02-26T00:06:57.828Z,17.52
2019-02-26T00:22:36.731Z,15.00
2019-02-26T00:25:08.531Z,16.23
2019-02-26T00:27:40.116Z,14.87
2019-02-26T00:30:13.612Z,15.78
2019-02-26T00:32:43.326Z,15.30
2019-02-26T00:35:13.641Z,15.20
2019-02-26T00:37:48.932Z,15.65
2019-02-26T00:40:20.290Z,15.25
2019-02-26T00:42:54.323Z,16.02
2019-02-26T00:45:26.949Z,14.00
2019-02-26T00:47:54.493Z,14.98
2019-02-26T00:50:25.011Z,14.60
2019-02-26T00:52:57.166Z,15.58
2019-02-26T00:55:29.840Z,15.55
2019-02-26T00:58:01.095Z,15.25
2019-02-26T01:00:33.194Z,13.35
2019-02-26T01:03:06.043Z,15.23
2019-02-26T01:05:36.996Z,15.20
2019-02-26T01:08:10.512Z,14.73
2019-02-26T01:10:41.519Z,15.48
2019-02-26T01:13:12.141Z,14.30
2019-02-26T01:15:42.908Z,14.45
2019-02-26T01:18:13.859Z,14.10
2019-02-26T01:20:44.280Z,13.40
2019-02-26T01:23:16.330Z,13.75
2019-02-26T01:25:46.795Z,12.95
2019-02-26T01:28:18.555Z,12.37
2019-02-26T01:30:51.412Z,13.08
2019-02-26T01:33:22.389Z,13.35
2019-02-26T01:35:55.512Z,13.60
2019-02-26T01:38:26.703Z,11.78
2019-02-26T01:40:57.433Z,13.60
2019-02-26T01:43:28.153Z,12.80
2019-02-26T01:45:58.774Z,12.60
2019-02-26T01:48:29.927Z,13.05
2019-02-26T01:51:01.166Z,15.90
2019-02-26T01:53:32.953Z,17.52
2019-02-26T01:56:05.091Z,16.60
2019-02-26T01:58:35.745Z,16.35
2019-02-26T02:01:06.262Z,17.35
2019-02-26T02:03:36.593Z,16.50
2019-02-26T02:06:10.636Z,15.18
2019-02-26T02:08:41.304Z,15.05
2019-02-26T02:11:11.442Z,13.93
2019-02-26T02:13:43.756Z,14.15
2019-02-26T02:16:13.556Z,15.05
2019-02-26T02:18:46.095Z,13.22
2019-02-26T02:21:15.842Z,13.28
2019-02-26T02:23:48.275Z,11.43
2019-02-26T02:26:19.668Z,13.10
2019-02-26T02:28:50.002Z,12.75
2019-02-26T02:31:22.052Z,13.38
2019-02-26T02:33:55.251Z,13.00
2019-02-26T02:36:28.219Z,13.48
2019-02-26T02:38:58.558Z,12.50
2019-02-26T02:41:28.926Z,13.08
2019-02-26T02:43:59.043Z,14.00
2019-02-26T02:46:29.548Z,13.85
2019-02-26T02:48:59.759Z,13.98
2019-02-26T02:51:31.481Z,12.68
2019-02-26T02:54:02.777Z,13.50
2019-02-26T02:56:35.566Z,13.62
2019-02-26T02:59:06.621Z,14.10
2019-02-26T03:01:38.464Z,12.75
2019-02-26T03:04:08.469Z,12.73
2019-02-26T03:06:39.419Z,13.00
2019-02-26T03:09:17.198Z,13.03
2019-02-26T03:11:49.427Z,12.37
2019-02-26T03:14:19.192Z,12.40
2019-02-26T03:16:51.405Z,13.05
2019-02-26T03:19:21.745Z,12.18
2019-02-26T03:21:53.182Z,11.53
2019-02-26T03:24:26.295Z,12.33
2019-02-26T03:26:56.339Z,14.25
2019-02-26T03:29:27.184Z,12.15
2019-02-26T03:31:57.819Z,12.18
2019-02-26T03:34:28.228Z,11.95
2019-02-26T03:36:59.886Z,13.55
2019-02-26T03:39:30.717Z,12.68
2019-02-26T03:42:01.468Z,13.28
2019-02-26T03:44:32.008Z,12.55
2019-02-26T03:47:02.433Z,13.28
2019-02-26T03:49:33.489Z,13.10
2019-02-26T03:52:03.661Z,12.40
2019-02-26T03:54:37.257Z,12.78
2019-02-26T03:57:06.115Z,14.10
2019-02-26T03:59:36.106Z,13.20
2019-02-26T04:02:07.292Z,12.98
2019-02-26T04:04:38.061Z,13.00
2019-02-26T04:07:10.701Z,13.03
2019-02-26T04:09:42.295Z,13.20
2019-02-26T04:12:13.582Z,13.88
2019-02-26T04:14:44.771Z,12.35
2019-02-26T04:17:15.562Z,11.50
2019-02-26T04:19:45.887Z,12.37
2019-02-26T04:22:40.208Z,13.15
2019-02-26T04:25:51.454Z,11.33
2019-02-26T04:28:32.975Z,14.40
2019-02-26T04:31:28.045Z,12.58
2019-02-26T04:34:23.404Z,12.82
2019-02-26T04:37:32.237Z,13.38
2019-02-26T04:40:16.670Z,13.28
2019-02-26T04:43:12.938Z,14.25
2019-02-26T04:46:25.571Z,12.43
2019-02-26T04:48:57.635Z,12.80
2019-02-26T04:51:36.343Z,13.13
2019-02-26T04:54:06.492Z,13.48
2019-02-26T04:56:39.485Z,11.40
2019-02-26T04:59:09.812Z,11.05
2019-02-26T05:01:40.864Z,12.18
2019-02-26T05:04:11.797Z,11.70
2019-02-26T05:06:41.907Z,11.38
2019-02-26T05:09:12.657Z,10.60
2019-02-26T05:11:43.487Z,11.40
2019-02-26T05:14:15.472Z,10.82
2019-02-26T05:16:45.656Z,13.68
2019-02-26T05:19:16.980Z,13.70
2019-02-26T05:21:48.074Z,22.75
2019-02-26T05:24:21.253Z,22.15
2019-02-26T05:26:50.831Z,21.05
2019-02-26T05:29:21.059Z,16.40
2019-02-26T05:31:51.495Z,14.05
2019-02-26T05:34:23.265Z,15.58
2019-02-26T05:36:53.806Z,13.90
2019-02-26T05:39:26.197Z,12.75
2019-02-26T05:41:58.953Z,12.33
2019-02-26T05:44:29.087Z,12.68
2019-02-26T05:47:01.609Z,12.65
2019-02-26T05:49:34.415Z,11.73
2019-02-26T05:52:04.217Z,12.63
2019-02-26T05:54:35.710Z,11.63
2019-02-26T05:57:06.744Z,11.28
2019-02-26T05:59:38.252Z,11.70
2019-02-26T06:02:10.594Z,12.23
2019-02-26T06:04:41.114Z,12.00
2019-02-26T06:07:12.342Z,11.03
2019-02-26T06:09:42.537Z,11.97
2019-02-26T06:12:13.106Z,11.15
2019-02-26T06:14:43.784Z,11.88
2019-02-26T06:17:15.488Z,10.90
2019-02-26T06:19:47.976Z,11.43
2019-02-26T06:22:21.408Z,11.68
2019-02-26T06:24:55.010Z,14.45
2019-02-26T06:27:25.164Z,17.15
2019-02-26T06:29:57.622Z,17.17
2019-02-26T06:32:29.967Z,17.20
2019-02-26T06:34:58.306Z,17.30
2019-02-26T06:37:29.077Z,18.87
2019-02-26T06:40:00.659Z,18.27
2019-02-26T06:42:33.245Z,17.00
2019-02-26T06:45:04.001Z,15.15
2019-02-26T06:47:34.483Z,15.85
2019-02-26T06:50:07.525Z,12.88
2019-02-26T06:52:38.182Z,14.20
2019-02-26T06:55:08.640Z,14.05
2019-02-26T06:57:38.811Z,14.58
2019-02-26T07:00:11.867Z,13.20
2019-02-26T07:02:45.471Z,14.15
2019-02-26T07:05:13.901Z,13.90
2019-02-26T07:07:44.272Z,13.18
2019-02-26T07:10:18.426Z,14.28
2019-02-26T07:12:48.865Z,12.28
2019-02-26T07:15:18.345Z,13.22
2019-02-26T07:17:48.041Z,13.75
2019-02-26T07:20:17.902Z,13.38
2019-02-26T07:22:49.614Z,12.85
2019-02-26T07:25:19.519Z,13.58
2019-02-26T07:27:51.202Z,14.63
2019-02-26T07:30:20.864Z,13.03
2019-02-26T07:32:50.386Z,14.47
2019-02-26T07:35:20.164Z,14.60
2019-02-26T07:37:49.902Z,14.75
2019-02-26T07:40:19.417Z,15.50
2019-02-26T07:42:49.549Z,16.55
2019-02-26T07:45:21.894Z,17.07
2019-02-26T07:47:51.470Z,15.88
2019-02-26T07:50:22.183Z,17.65
2019-02-26T07:52:52.618Z,17.05
2019-02-26T07:55:23.623Z,16.12
2019-02-26T07:57:53.712Z,15.78
2019-02-26T08:00:23.982Z,14.78
2019-02-26T08:02:54.809Z,14.68
2019-02-26T08:05:26.782Z,14.10
2019-02-26T08:07:56.642Z,13.78
2019-02-26T08:10:26.522Z,13.50
2019-02-26T08:12:56.719Z,12.68
2019-02-26T08:15:27.794Z,14.00
2019-02-26T08:18:00.402Z,13.32
2019-02-26T08:20:30.448Z,12.70
2019-02-26T08:23:01.381Z,12.28
2019-02-26T08:25:31.185Z,12.28
2019-02-26T08:28:01.238Z,12.98
2019-02-26T08:30:31.305Z,12.85
2019-02-26T08:33:04.155Z,12.63
2019-02-26T08:35:32.441Z,12.75
2019-02-26T08:38:05.685Z,12.50
2019-02-26T08:40:33.821Z,12.70
2019-02-26T08:43:03.279Z,13.30
2019-02-26T08:45:32.915Z,13.30
2019-02-26T08:48:02.562Z,13.17
2019-02-26T08:50:33.307Z,13.40
2019-02-26T08:53:03.399Z,13.27
2019-02-26T08:55:33.181Z,14.50
2019-02-26T08:58:02.621Z,15.47
2019-02-26T09:00:34.211Z,15.67
2019-02-26T09:03:03.944Z,14.23
2019-02-26T09:05:34.472Z,16.60
2019-02-26T09:08:05.963Z,14.80
2019-02-26T09:10:38.587Z,14.50
2019-02-26T09:13:09.387Z,14.80
2019-02-26T09:15:40.833Z,14.43
2019-02-26T09:18:10.303Z,15.00
2019-02-26T09:20:39.994Z,14.50
2019-02-26T09:23:09.702Z,13.43
2019-02-26T09:25:39.433Z,13.83
2019-02-26T09:28:09.032Z,14.40
2019-02-26T09:30:38.996Z,13.47
2019-02-26T09:33:11.098Z,14.10
2019-02-26T09:35:40.803Z,15.53
2019-02-26T09:38:12.314Z,14.27
2019-02-26T09:40:41.959Z,15.33
2019-02-26T09:43:12.908Z,14.73
2019-02-26T09:45:43.574Z,13.37
2019-02-26T09:48:15.250Z,13.77
2019-02-26T09:50:46.323Z,16.07
2019-02-26T09:53:16.656Z,13.37
2019-02-26T09:55:46.186Z,15.20
2019-02-26T09:58:16.420Z,14.80
2019-02-26T10:00:48.094Z,13.80
2019-02-26T10:03:18.652Z,14.10
2019-02-26T10:05:50.257Z,14.37
2019-02-26T10:08:19.958Z,14.30
2019-02-26T10:10:51.993Z,12.33
2019-02-26T10:13:23.258Z,12.13
2019-02-26T10:15:53.667Z,14.47
2019-02-26T10:18:25.171Z,14.67
2019-02-26T10:20:54.712Z,13.87
2019-02-26T10:23:26.353Z,13.10
2019-02-26T10:25:57.918Z,14.07
2019-02-26T10:28:27.220Z,13.17
2019-02-26T10:30:57.466Z,13.40
2019-02-26T10:33:27.825Z,15.00
2019-02-26T10:35:57.460Z,13.27
2019-02-26T10:38:29.564Z,13.87
2019-02-26T10:40:59.739Z,15.23
2019-02-26T10:43:29.620Z,13.10
2019-02-26T10:45:59.264Z,13.20
2019-02-26T10:48:28.765Z,13.93
2019-02-26T10:50:58.420Z,14.07
2019-02-26T10:53:27.979Z,12.93
2019-02-26T10:55:57.685Z,12.80
2019-02-26T10:58:27.609Z,13.30
2019-02-26T11:00:59.419Z,13.20
2019-02-26T11:03:29.788Z,13.00
2019-02-26T11:05:59.622Z,14.30
2019-02-26T11:08:30.525Z,15.07
2019-02-26T11:11:00.583Z,14.70
2019-02-26T11:13:30.220Z,13.53
2019-02-26T11:16:02.893Z,12.00
2019-02-26T11:18:31.059Z,11.33
2019-02-26T11:21:00.611Z,11.50
2019-02-26T11:23:31.392Z,12.20
2019-02-26T11:26:01.870Z,13.20
2019-02-26T11:28:32.925Z,12.00
2019-02-26T11:31:03.582Z,11.80
2019-02-26T11:33:33.099Z,9.60
2019-02-26T11:36:03.096Z,7.80
2019-02-26T11:38:35.296Z,9.97
2019-02-26T11:41:05.623Z,9.03
2019-02-26T11:43:35.505Z,9.17
2019-02-26T11:46:06.789Z,7.73
2019-02-26T11:48:37.059Z,7.20
2019-02-26T11:51:06.579Z,7.47
2019-02-26T11:53:36.461Z,7.20
2019-02-26T11:56:06.339Z,9.20
2019-02-26T11:58:35.859Z,9.87
2019-02-26T12:01:10.418Z,9.07
2019-02-26T12:03:41.666Z,10.07
2019-02-26T12:06:11.502Z,10.33
2019-02-26T12:08:43.111Z,9.90
2019-02-26T12:11:16.573Z,9.30
2019-02-26T12:13:44.719Z,8.50
2019-02-26T12:16:15.189Z,7.43
2019-02-26T12:18:46.885Z,9.40
2019-02-26T12:21:16.300Z,10.00
2019-02-26T12:23:46.729Z,9.83
2019-02-26T12:26:19.177Z,11.03
2019-02-26T12:28:48.339Z,11.00
2019-02-26T12:31:17.845Z,10.33
2019-02-26T12:33:47.662Z,9.73
2019-02-26T12:36:17.622Z,10.20
2019-02-26T12:38:50.133Z,12.47
2019-02-26T12:41:20.943Z,12.40
2019-02-26T12:43:50.281Z,12.80
2019-02-26T12:46:21.678Z,12.17
2019-02-26T12:48:51.251Z,12.67
2019-02-26T12:51:22.599Z,13.63
2019-02-26T12:53:52.538Z,13.20
2019-02-26T12:56:24.285Z,12.40
2019-02-26T12:58:54.715Z,13.53
2019-02-26T13:01:24.462Z,12.63
2019-02-26T13:03:54.953Z,14.87
2019-02-26T13:06:25.025Z,15.10
2019-02-26T13:08:54.531Z,15.43
2019-02-26T13:11:25.184Z,14.23
2019-02-26T13:13:55.442Z,17.13
2019-02-26T13:16:24.884Z,13.70
2019-02-26T13:18:58.529Z,13.77
2019-02-26T13:21:25.736Z,13.50
2019-02-26T13:23:58.696Z,14.67
2019-02-26T13:26:26.589Z,15.40
2019-02-26T13:29:00.044Z,14.90
2019-02-26T13:31:27.580Z,15.93
2019-02-26T13:33:57.354Z,15.70
2019-02-26T13:36:26.978Z,15.70
2019-02-26T13:38:56.557Z,15.00
2019-02-26T13:41:30.007Z,14.80
2019-02-26T13:43:57.413Z,14.27
2019-02-26T13:46:27.218Z,17.40
2019-02-26T13:48:56.831Z,14.50
2019-02-26T13:51:26.851Z,15.57
2019-02-26T13:53:56.497Z,15.40
2019-02-26T13:56:25.910Z,16.20
2019-02-26T13:58:56.023Z,14.17
2019-02-26T14:01:25.776Z,16.77
2019-02-26T14:03:55.536Z,13.70
2019-02-26T14:06:25.178Z,14.50
2019-02-26T14:08:55.179Z,14.00
2019-02-26T14:11:24.772Z,13.80
2019-02-26T14:13:55.056Z,13.77
2019-02-26T14:16:24.818Z,13.73
2019-02-26T14:18:54.582Z,14.00
2019-02-26T14:21:24.340Z,14.77
2019-02-26T14:23:54.082Z,14.23
2019-02-26T14:26:23.983Z,12.10
2019-02-26T14:28:53.915Z,13.10
2019-02-26T14:31:23.821Z,12.80
2019-02-26T14:33:53.944Z,12.77
2019-02-26T14:36:23.737Z,12.80
2019-02-26T14:38:53.356Z,12.23
2019-02-26T14:41:23.063Z,12.90
2019-02-26T14:43:52.783Z,12.13
2019-02-26T14:46:22.280Z,13.70
2019-02-26T14:48:52.064Z,12.53
2019-02-26T14:51:21.718Z,12.77
2019-02-26T14:53:51.815Z,15.03
2019-02-26T14:56:21.524Z,14.50
2019-02-26T14:58:51.102Z,13.73
2019-02-26T15:01:20.735Z,14.43
2019-02-26T15:03:50.736Z,14.57
2019-02-26T15:06:20.254Z,15.00
2019-02-26T15:08:50.025Z,15.30
2019-02-26T15:11:19.567Z,14.70
2019-02-26T15:13:49.996Z,15.87
2019-02-26T15:16:20.262Z,15.10
2019-02-26T15:18:49.928Z,14.67
2019-02-26T15:21:19.737Z,15.03
2019-02-26T15:23:50.359Z,16.13
2019-02-26T15:26:20.019Z,14.87
2019-02-26T15:28:49.478Z,14.80
2019-02-26T15:31:19.389Z,14.10
2019-02-26T15:33:49.095Z,15.00
2019-02-26T15:36:18.937Z,13.90
2019-02-26T15:38:48.698Z,14.40
2019-02-26T15:41:18.458Z,11.10
2019-02-26T15:43:48.095Z,11.80
2019-02-26T15:46:17.739Z,11.40
2019-02-26T15:48:47.257Z,10.53
2019-02-26T15:51:19.886Z,8.07
2019-02-26T15:53:48.337Z,8.60
2019-02-26T15:56:17.864Z,8.80
2019-02-26T15:58:47.500Z,9.20
2019-02-26T16:01:17.259Z,9.20
2019-02-26T16:03:46.903Z,8.53
2019-02-26T16:06:16.778Z,9.87
2019-02-26T16:08:46.421Z,8.40
2019-02-26T16:11:15.941Z,7.93
2019-02-26T16:13:45.937Z,9.07
2019-02-26T16:16:15.404Z,8.53
2019-02-26T16:18:45.096Z,8.90
2019-02-26T16:21:18.457Z,9.33
2019-02-26T16:23:46.777Z,8.23
2019-02-26T16:26:17.499Z,9.17
2019-02-26T16:28:46.988Z,10.40
2019-02-26T16:31:16.697Z,9.90
2019-02-26T16:33:46.739Z,10.30
2019-02-26T16:36:17.136Z,9.87
2019-02-26T16:38:50.546Z,9.80
2019-02-26T16:41:18.215Z,11.13
2019-02-26T16:43:51.633Z,10.20
2019-02-26T16:46:19.175Z,9.47
2019-02-26T16:48:49.060Z,9.90
2019-02-26T16:51:21.569Z,9.23
2019-02-26T16:53:50.024Z,8.90
2019-02-26T16:56:21.943Z,9.67
2019-02-26T16:58:51.699Z,9.77
2019-02-26T17:01:21.934Z,9.27
2019-02-26T17:03:52.301Z,11.37
2019-02-26T17:06:21.936Z,11.67
2019-02-26T17:08:51.617Z,11.87
2019-02-26T17:11:21.699Z,10.63
2019-02-26T17:13:51.367Z,12.67
2019-02-26T17:16:20.974Z,12.40
2019-02-26T17:18:50.622Z,11.40
2019-02-26T17:21:21.119Z,11.67
2019-02-26T17:23:51.942Z,11.53
2019-02-26T17:26:22.171Z,12.10
2019-02-26T17:28:51.879Z,10.70
2019-02-26T17:31:22.225Z,12.90
2019-02-26T17:33:52.965Z,13.53
2019-02-26T17:36:23.287Z,15.47
2019-02-26T17:38:53.508Z,19.63
2019-02-26T17:41:23.279Z,15.60
2019-02-26T17:43:52.885Z,19.60
2019-02-26T17:46:23.020Z,14.73
2019-02-26T17:48:52.611Z,13.90
2019-02-26T17:51:22.595Z,13.23
2019-02-26T17:53:52.240Z,13.23
2019-02-26T17:56:21.774Z,11.87
2019-02-26T17:58:51.574Z,12.23
2019-02-26T18:01:21.215Z,14.40
2019-02-26T18:03:51.225Z,17.10
2019-02-26T18:06:20.738Z,13.70
2019-02-26T18:08:51.164Z,13.13
2019-02-26T18:11:23.508Z,12.53
2019-02-26T18:13:53.255Z,12.60
2019-02-26T18:16:23.395Z,13.13
2019-02-26T18:18:54.375Z,18.07
2019-02-26T18:21:24.741Z,17.97
2019-02-26T18:23:56.618Z,15.17
2019-02-26T18:26:26.923Z,14.37
2019-02-26T18:29:00.220Z,14.47
2019-02-26T18:31:31.647Z,13.53
2019-02-26T18:34:02.302Z,13.17
2019-02-26T18:36:33.166Z,13.77
2019-02-26T18:39:03.930Z,14.43
2019-02-26T18:41:37.069Z,13.43
2019-02-26T18:44:06.883Z,14.63
2019-02-26T18:46:37.102Z,14.90
2019-02-26T18:49:07.735Z,14.50
2019-02-26T18:51:38.624Z,13.70
2019-02-26T18:54:09.401Z,13.87
2019-02-26T18:56:42.603Z,12.90
2019-02-26T18:59:13.323Z,14.77
2019-02-26T19:01:47.293Z,15.80
2019-02-26T19:04:18.093Z,15.60
2019-02-26T19:06:48.976Z,15.03
2019-02-26T19:09:19.737Z,13.25
2019-02-26T19:11:49.987Z,14.53
2019-02-26T19:14:21.464Z,17.40
2019-02-26T19:16:54.390Z,14.30
2019-02-26T19:19:26.653Z,16.55
2019-02-26T19:21:58.862Z,15.58
2019-02-26T19:24:35.628Z,18.87
2019-02-26T19:27:02.676Z,20.92
2019-02-26T19:29:33.538Z,18.60
2019-02-26T19:32:04.313Z,20.30
2019-02-26T19:34:34.585Z,20.05
2019-02-26T19:37:04.812Z,19.30
2019-02-26T19:39:34.928Z,21.13
2019-02-26T19:42:05.972Z,20.90
2019-02-26T19:44:36.495Z,21.23
2019-02-26T19:47:14.222Z,18.92
2019-02-26T19:49:42.577Z,16.97
2019-02-26T19:52:13.028Z,17.10
2019-02-26T19:54:43.416Z,18.35
2019-02-26T19:57:13.987Z,17.90
2019-02-26T19:59:46.927Z,17.90
2019-02-26T20:02:20.479Z,19.60
2019-02-26T20:04:51.186Z,18.12
2019-02-26T20:07:24.931Z,21.35
2019-02-26T20:09:56.639Z,24.60
2019-02-26T20:12:29.201Z,27.13
2019-02-26T20:15:00.310Z,31.20
2019-02-26T20:17:31.019Z,29.95
2019-02-26T20:20:16.799Z,28.80
2019-02-26T20:22:47.837Z,30.40
2019-02-26T20:25:20.314Z,31.25
2019-02-26T20:27:55.151Z,27.15
2019-02-26T20:30:26.595Z,25.43
2019-02-26T20:32:57.226Z,26.48
2019-02-26T20:35:29.086Z,21.55
2019-02-26T20:37:59.514Z,20.32
2019-02-26T20:40:31.160Z,20.35
2019-02-26T20:43:01.991Z,21.02
2019-02-26T20:45:36.638Z,20.65
2019-02-26T20:48:07.063Z,20.00
2019-02-26T20:50:37.286Z,19.73
2019-02-26T20:53:07.513Z,18.35
2019-02-26T20:55:40.901Z,19.52
2019-02-26T20:58:12.430Z,19.23
2019-02-26T21:00:43.504Z,17.77
2019-02-26T21:03:14.201Z,16.30
2019-02-26T21:05:45.346Z,17.65
2019-02-26T21:08:15.668Z,16.80
2019-02-26T21:10:47.998Z,17.50
2019-02-26T21:13:18.096Z,15.65
2019-02-26T21:15:48.226Z,17.02
2019-02-26T21:18:19.060Z,15.63
2019-02-26T21:20:49.656Z,15.83
2019-02-26T21:23:20.014Z,17.45
2019-02-26T21:25:50.405Z,16.32
2019-02-26T21:28:22.098Z,17.65
2019-02-26T21:30:52.053Z,16.62
2019-02-26T21:33:22.080Z,15.95
2019-02-26T21:35:54.291Z,15.43
2019-02-26T21:38:24.629Z,14.53
2019-02-26T21:40:55.468Z,15.58
2019-02-26T21:43:26.103Z,17.12
2019-02-26T21:45:56.937Z,17.32
2019-02-26T21:48:27.466Z,17.75
2019-02-26T21:50:58.098Z,16.75
2019-02-26T21:53:28.832Z,16.95
2019-02-26T21:56:00.097Z,17.00
2019-02-26T21:58:30.712Z,18.37
2019-02-26T22:01:02.741Z,16.50
2019-02-26T22:03:33.513Z,18.60
2019-02-26T22:06:05.598Z,16.77
2019-02-26T22:09:07.549Z,16.57
2019-02-26T22:11:38.384Z,17.92
2019-02-26T22:14:08.710Z,17.32
2019-02-26T22:16:39.539Z,17.10
2019-02-26T22:19:10.490Z,16.67
2019-02-26T22:21:51.875Z,16.05
2019-02-26T22:24:34.658Z,16.25
2019-02-26T22:27:05.304Z,14.40
2019-02-26T22:29:36.417Z,14.85
2019-02-26T22:32:06.869Z,17.85
2019-02-26T22:34:37.911Z,18.00
2019-02-26T22:37:11.180Z,16.32
2019-02-26T22:39:41.870Z,18.55
2019-02-26T22:42:12.397Z,18.40
2019-02-26T22:44:42.822Z,16.27
2019-02-26T22:47:13.643Z,18.37
2019-02-26T22:49:43.982Z,14.80
2019-02-26T22:52:14.515Z,16.60
2019-02-26T22:54:44.862Z,15.28
2019-02-26T22:57:15.268Z,16.93
2019-02-26T22:59:45.696Z,17.55
2019-02-26T23:02:16.433Z,17.90
2019-02-26T23:04:46.448Z,15.93
2019-02-26T23:07:16.614Z,16.52
2019-02-26T23:09:52.927Z,15.85
2019-02-26T23:12:21.008Z,15.93
2019-02-26T23:14:51.472Z,16.40
2019-02-26T23:17:24.718Z,16.97
2019-02-26T23:19:54.650Z,14.75
2019-02-26T23:22:24.718Z,14.50
2019-02-26T23:24:55.221Z,15.35
2019-02-26T23:27:25.723Z,14.07
2019-02-26T23:29:58.733Z,15.30
2019-02-26T23:32:29.549Z,14.60
2019-02-26T23:35:12.069Z,13.18
2019-02-26T23:37:45.101Z,14.80
2019-02-26T23:40:15.995Z,15.32
2019-02-26T23:42:46.414Z,17.45
2019-02-26T23:45:17.559Z,18.02
2019-02-26T23:47:48.603Z,16.10
2019-02-26T23:50:28.043Z,14.33
2019-02-26T23:53:00.909Z,16.30
2019-02-26T23:55:30.431Z,15.35
2019-02-26T23:58:01.067Z,19.30
